sensor_id;sensor_type;location;lat;lon;timestamp;P1;durP1;ratioP1;P2;durP2;ratioP2
19059;SDS011;9663;48.996;8.334;2023-02-28T00:00:35;2.42;;;0.88;;
19059;SDS011;9663;48.996;8.334;2023-02-28T00:03:02;2.70;;;0.98;;
19059;SDS011;9663;48.996;8.334;2023-02-28T00:05:28;1.98;;;0.90;;
19059;SDS011;9663;48.996;8.334;2023-02-28T00:07:55;2.75;;;0.93;;
19059;SDS011;9663;48.996;8.334;2023-02-28T00:10:23;4.43;;;1.10;;
19059;SDS011;9663;48.996;8.334;2023-02-28T00:12:52;2.58;;;1.05;;
19059;SDS011;9663;48.996;8.334;2023-02-28T00:15:22;3.53;;;1.10;;
19059;SDS011;9663;48.996;8.334;2023-02-28T00:17:49;4.25;;;1.33;;
19059;SDS011;9663;48.996;8.334;2023-02-28T00:20:16;3.40;;;1.20;;
19059;SDS011;9663;48.996;8.334;2023-02-28T00:22:43;3.15;;;1.10;;
19059;SDS011;9663;48.996;8.334;2023-02-28T00:25:12;3.53;;;1.13;;
19059;SDS011;9663;48.996;8.334;2023-02-28T00:27:41;3.25;;;1.23;;
19059;SDS011;9663;48.996;8.334;2023-02-28T00:30:08;2.80;;;1.00;;
19059;SDS011;9663;48.996;8.334;2023-02-28T00:32:39;2.83;;;1.08;;
19059;SDS011;9663;48.996;8.334;2023-02-28T00:35:05;2.80;;;1.15;;
19059;SDS011;9663;48.996;8.334;2023-02-28T00:37:32;2.92;;;1.15;;
19059;SDS011;9663;48.996;8.334;2023-02-28T00:39:59;2.83;;;1.08;;
19059;SDS011;9663;48.996;8.334;2023-02-28T00:42:24;2.85;;;1.02;;
19059;SDS011;9663;48.996;8.334;2023-02-28T00:44:50;3.95;;;1.27;;
19059;SDS011;9663;48.996;8.334;2023-02-28T00:47:16;3.25;;;1.17;;
19059;SDS011;9663;48.996;8.334;2023-02-28T00:49:42;3.45;;;1.10;;
19059;SDS011;9663;48.996;8.334;2023-02-28T00:52:08;2.53;;;0.90;;
19059;SDS011;9663;48.996;8.334;2023-02-28T00:54:33;2.65;;;0.90;;
19059;SDS011;9663;48.996;8.334;2023-02-28T00:56:59;2.10;;;1.00;;
19059;SDS011;9663;48.996;8.334;2023-02-28T00:59:24;3.83;;;1.20;;
19059;SDS011;9663;48.996;8.334;2023-02-28T01:01:50;2.70;;;1.02;;
19059;SDS011;9663;48.996;8.334;2023-02-28T01:04:16;2.38;;;1.00;;
19059;SDS011;9663;48.996;8.334;2023-02-28T01:06:42;2.47;;;1.00;;
19059;SDS011;9663;48.996;8.334;2023-02-28T01:09:08;2.88;;;1.10;;
19059;SDS011;9663;48.996;8.334;2023-02-28T01:11:35;4.47;;;1.30;;
19059;SDS011;9663;48.996;8.334;2023-02-28T01:14:01;3.58;;;1.42;;
19059;SDS011;9663;48.996;8.334;2023-02-28T01:16:28;2.63;;;1.00;;
19059;SDS011;9663;48.996;8.334;2023-02-28T01:18:55;3.70;;;1.25;;
19059;SDS011;9663;48.996;8.334;2023-02-28T01:21:21;4.78;;;1.20;;
19059;SDS011;9663;48.996;8.334;2023-02-28T01:23:47;3.20;;;1.25;;
19059;SDS011;9663;48.996;8.334;2023-02-28T01:26:15;2.67;;;0.90;;
19059;SDS011;9663;48.996;8.334;2023-02-28T01:28:44;2.72;;;1.00;;
19059;SDS011;9663;48.996;8.334;2023-02-28T01:31:10;4.07;;;1.00;;
19059;SDS011;9663;48.996;8.334;2023-02-28T01:33:37;2.70;;;1.00;;
19059;SDS011;9663;48.996;8.334;2023-02-28T01:36:05;2.63;;;1.02;;
19059;SDS011;9663;48.996;8.334;2023-02-28T01:38:35;2.65;;;0.95;;
19059;SDS011;9663;48.996;8.334;2023-02-28T01:41:01;2.72;;;0.90;;
19059;SDS011;9663;48.996;8.334;2023-02-28T01:46:08;2.58;;;1.08;;
19059;SDS011;9663;48.996;8.334;2023-02-28T01:48:36;2.72;;;1.10;;
19059;SDS011;9663;48.996;8.334;2023-02-28T01:51:09;3.05;;;1.10;;
19059;SDS011;9663;48.996;8.334;2023-02-28T01:53:45;2.78;;;1.00;;
19059;SDS011;9663;48.996;8.334;2023-02-28T01:56:17;3.20;;;0.90;;
19059;SDS011;9663;48.996;8.334;2023-02-28T01:58:55;3.03;;;1.20;;
19059;SDS011;9663;48.996;8.334;2023-02-28T02:01:21;2.80;;;1.02;;
19059;SDS011;9663;48.996;8.334;2023-02-28T02:03:51;2.05;;;0.90;;
19059;SDS011;9663;48.996;8.334;2023-02-28T02:06:22;3.08;;;1.20;;
19059;SDS011;9663;48.996;8.334;2023-02-28T02:08:51;3.63;;;1.10;;
19059;SDS011;9663;48.996;8.334;2023-02-28T02:11:18;3.25;;;1.10;;
19059;SDS011;9663;48.996;8.334;2023-02-28T02:25:19;2.67;;;1.05;;
19059;SDS011;9663;48.996;8.334;2023-02-28T02:34:17;2.65;;;0.93;;
19059;SDS011;9663;48.996;8.334;2023-02-28T02:36:57;2.83;;;1.00;;
19059;SDS011;9663;48.996;8.334;2023-02-28T02:42:16;2.58;;;0.90;;
19059;SDS011;9663;48.996;8.334;2023-02-28T02:45:06;3.90;;;1.23;;
19059;SDS011;9663;48.996;8.334;2023-02-28T02:48:03;2.80;;;1.10;;
19059;SDS011;9663;48.996;8.334;2023-02-28T02:50:36;2.65;;;1.00;;
19059;SDS011;9663;48.996;8.334;2023-02-28T02:53:09;2.50;;;1.00;;
19059;SDS011;9663;48.996;8.334;2023-02-28T02:55:42;3.50;;;1.30;;
19059;SDS011;9663;48.996;8.334;2023-02-28T02:58:13;3.47;;;1.17;;
19059;SDS011;9663;48.996;8.334;2023-02-28T03:00:45;2.83;;;1.30;;
19059;SDS011;9663;48.996;8.334;2023-02-28T03:03:18;2.65;;;0.93;;
19059;SDS011;9663;48.996;8.334;2023-02-28T03:05:54;2.97;;;1.20;;
19059;SDS011;9663;48.996;8.334;2023-02-28T03:08:29;3.25;;;1.30;;
19059;SDS011;9663;48.996;8.334;2023-02-28T03:11:01;3.88;;;1.10;;
19059;SDS011;9663;48.996;8.334;2023-02-28T03:13:52;3.20;;;1.20;;
19059;SDS011;9663;48.996;8.334;2023-02-28T03:22:32;3.90;;;1.35;;
19059;SDS011;9663;48.996;8.334;2023-02-28T03:28:00;2.83;;;1.05;;
19059;SDS011;9663;48.996;8.334;2023-02-28T03:30:56;3.60;;;1.17;;
19059;SDS011;9663;48.996;8.334;2023-02-28T03:33:38;2.67;;;0.95;;
19059;SDS011;9663;48.996;8.334;2023-02-28T03:36:12;2.90;;;1.00;;
19059;SDS011;9663;48.996;8.334;2023-02-28T03:38:49;3.28;;;1.23;;
19059;SDS011;9663;48.996;8.334;2023-02-28T03:41:27;4.25;;;1.40;;
19059;SDS011;9663;48.996;8.334;2023-02-28T03:44:02;3.05;;;1.17;;
19059;SDS011;9663;48.996;8.334;2023-02-28T03:46:40;3.90;;;1.20;;
19059;SDS011;9663;48.996;8.334;2023-02-28T03:49:23;3.85;;;1.45;;
19059;SDS011;9663;48.996;8.334;2023-02-28T03:51:57;3.38;;;1.27;;
19059;SDS011;9663;48.996;8.334;2023-02-28T03:54:31;3.63;;;1.40;;
19059;SDS011;9663;48.996;8.334;2023-02-28T03:57:10;3.38;;;1.10;;
19059;SDS011;9663;48.996;8.334;2023-02-28T04:00:14;4.68;;;1.30;;
19059;SDS011;9663;48.996;8.334;2023-02-28T04:02:53;4.43;;;1.58;;
19059;SDS011;9663;48.996;8.334;2023-02-28T04:05:20;3.90;;;1.30;;
19059;SDS011;9663;48.996;8.334;2023-02-28T04:07:47;3.53;;;1.20;;
19059;SDS011;9663;48.996;8.334;2023-02-28T04:10:13;3.60;;;1.23;;
19059;SDS011;9663;48.996;8.334;2023-02-28T04:12:41;3.60;;;1.35;;
19059;SDS011;9663;48.996;8.334;2023-02-28T04:15:06;4.28;;;1.52;;
19059;SDS011;9663;48.996;8.334;2023-02-28T04:17:33;3.35;;;1.40;;
19059;SDS011;9663;48.996;8.334;2023-02-28T04:19:58;3.30;;;1.20;;
19059;SDS011;9663;48.996;8.334;2023-02-28T04:22:24;3.53;;;1.33;;
19059;SDS011;9663;48.996;8.334;2023-02-28T04:24:53;3.40;;;1.38;;
19059;SDS011;9663;48.996;8.334;2023-02-28T04:27:19;3.45;;;1.50;;
19059;SDS011;9663;48.996;8.334;2023-02-28T04:29:46;4.38;;;1.38;;
19059;SDS011;9663;48.996;8.334;2023-02-28T04:32:12;3.92;;;1.40;;
19059;SDS011;9663;48.996;8.334;2023-02-28T04:34:38;3.85;;;1.40;;
19059;SDS011;9663;48.996;8.334;2023-02-28T04:37:04;3.78;;;1.42;;
19059;SDS011;9663;48.996;8.334;2023-02-28T04:39:34;3.85;;;1.35;;
19059;SDS011;9663;48.996;8.334;2023-02-28T04:42:01;3.72;;;1.50;;
19059;SDS011;9663;48.996;8.334;2023-02-28T04:44:28;4.57;;;1.60;;
19059;SDS011;9663;48.996;8.334;2023-02-28T04:46:53;3.08;;;1.20;;
19059;SDS011;9663;48.996;8.334;2023-02-28T04:49:19;5.20;;;1.60;;
19059;SDS011;9663;48.996;8.334;2023-02-28T04:51:44;3.55;;;1.60;;
19059;SDS011;9663;48.996;8.334;2023-02-28T04:54:10;3.30;;;1.33;;
19059;SDS011;9663;48.996;8.334;2023-02-28T04:56:36;4.05;;;1.50;;
19059;SDS011;9663;48.996;8.334;2023-02-28T04:59:01;3.25;;;1.23;;
19059;SDS011;9663;48.996;8.334;2023-02-28T05:01:28;4.43;;;1.40;;
19059;SDS011;9663;48.996;8.334;2023-02-28T05:03:59;3.35;;;1.40;;
19059;SDS011;9663;48.996;8.334;2023-02-28T05:06:28;3.03;;;1.30;;
19059;SDS011;9663;48.996;8.334;2023-02-28T05:08:56;3.45;;;1.40;;
19059;SDS011;9663;48.996;8.334;2023-02-28T05:11:29;3.70;;;1.40;;
19059;SDS011;9663;48.996;8.334;2023-02-28T05:14:03;4.15;;;1.30;;
19059;SDS011;9663;48.996;8.334;2023-02-28T05:16:51;3.63;;;1.60;;
19059;SDS011;9663;48.996;8.334;2023-02-28T05:19:17;4.68;;;1.48;;
19059;SDS011;9663;48.996;8.334;2023-02-28T05:21:49;3.90;;;1.55;;
19059;SDS011;9663;48.996;8.334;2023-02-28T05:24:19;5.03;;;1.77;;
19059;SDS011;9663;48.996;8.334;2023-02-28T05:26:47;3.35;;;1.50;;
19059;SDS011;9663;48.996;8.334;2023-02-28T05:29:16;3.83;;;1.48;;
19059;SDS011;9663;48.996;8.334;2023-02-28T05:31:42;3.60;;;1.45;;
19059;SDS011;9663;48.996;8.334;2023-02-28T05:34:07;4.00;;;1.42;;
19059;SDS011;9663;48.996;8.334;2023-02-28T05:36:36;3.83;;;1.83;;
19059;SDS011;9663;48.996;8.334;2023-02-28T05:39:04;4.20;;;1.67;;
19059;SDS011;9663;48.996;8.334;2023-02-28T05:41:32;3.63;;;1.30;;
19059;SDS011;9663;48.996;8.334;2023-02-28T05:43:58;3.85;;;1.55;;
19059;SDS011;9663;48.996;8.334;2023-02-28T05:46:24;4.15;;;1.60;;
19059;SDS011;9663;48.996;8.334;2023-02-28T05:48:50;3.95;;;1.77;;
19059;SDS011;9663;48.996;8.334;2023-02-28T05:51:16;4.38;;;1.60;;
19059;SDS011;9663;48.996;8.334;2023-02-28T05:53:42;3.83;;;1.50;;
19059;SDS011;9663;48.996;8.334;2023-02-28T05:56:09;4.35;;;1.55;;
19059;SDS011;9663;48.996;8.334;2023-02-28T05:58:34;5.63;;;1.83;;
19059;SDS011;9663;48.996;8.334;2023-02-28T06:01:01;4.57;;;1.80;;
19059;SDS011;9663;48.996;8.334;2023-02-28T06:03:49;4.35;;;2.05;;
19059;SDS011;9663;48.996;8.334;2023-02-28T06:06:15;4.03;;;1.80;;
19059;SDS011;9663;48.996;8.334;2023-02-28T06:08:41;4.07;;;1.58;;
19059;SDS011;9663;48.996;8.334;2023-02-28T06:11:08;3.70;;;1.70;;
19059;SDS011;9663;48.996;8.334;2023-02-28T06:13:34;3.35;;;1.27;;
19059;SDS011;9663;48.996;8.334;2023-02-28T06:16:02;4.07;;;1.75;;
19059;SDS011;9663;48.996;8.334;2023-02-28T06:18:28;4.13;;;1.70;;
19059;SDS011;9663;48.996;8.334;2023-02-28T06:20:54;4.93;;;1.80;;
19059;SDS011;9663;48.996;8.334;2023-02-28T06:23:20;4.38;;;1.65;;
19059;SDS011;9663;48.996;8.334;2023-02-28T06:25:46;3.85;;;1.63;;
19059;SDS011;9663;48.996;8.334;2023-02-28T06:28:12;4.55;;;1.92;;
19059;SDS011;9663;48.996;8.334;2023-02-28T06:30:38;4.60;;;1.67;;
19059;SDS011;9663;48.996;8.334;2023-02-28T06:33:04;4.10;;;1.80;;
19059;SDS011;9663;48.996;8.334;2023-02-28T06:35:30;4.28;;;1.77;;
19059;SDS011;9663;48.996;8.334;2023-02-28T06:37:56;3.95;;;1.60;;
19059;SDS011;9663;48.996;8.334;2023-02-28T06:40:22;4.05;;;1.67;;
19059;SDS011;9663;48.996;8.334;2023-02-28T06:42:48;4.78;;;1.95;;
19059;SDS011;9663;48.996;8.334;2023-02-28T06:45:13;3.85;;;1.90;;
19059;SDS011;9663;48.996;8.334;2023-02-28T06:47:40;4.50;;;1.83;;
19059;SDS011;9663;48.996;8.334;2023-02-28T06:50:07;4.97;;;1.70;;
19059;SDS011;9663;48.996;8.334;2023-02-28T06:52:35;3.83;;;1.48;;
19059;SDS011;9663;48.996;8.334;2023-02-28T06:55:02;5.03;;;1.83;;
19059;SDS011;9663;48.996;8.334;2023-02-28T06:57:30;4.53;;;2.00;;
19059;SDS011;9663;48.996;8.334;2023-02-28T07:00:02;5.00;;;1.83;;
19059;SDS011;9663;48.996;8.334;2023-02-28T07:02:33;5.50;;;1.80;;
19059;SDS011;9663;48.996;8.334;2023-02-28T07:05:02;3.85;;;1.70;;
19059;SDS011;9663;48.996;8.334;2023-02-28T07:07:30;4.63;;;1.80;;
19059;SDS011;9663;48.996;8.334;2023-02-28T07:09:57;4.78;;;1.80;;
19059;SDS011;9663;48.996;8.334;2023-02-28T07:12:22;4.93;;;1.88;;
19059;SDS011;9663;48.996;8.334;2023-02-28T07:14:48;4.35;;;1.88;;
19059;SDS011;9663;48.996;8.334;2023-02-28T07:17:14;4.10;;;1.95;;
19059;SDS011;9663;48.996;8.334;2023-02-28T07:19:40;4.50;;;1.65;;
19059;SDS011;9663;48.996;8.334;2023-02-28T07:22:06;3.92;;;1.77;;
19059;SDS011;9663;48.996;8.334;2023-02-28T07:24:32;4.60;;;1.77;;
19059;SDS011;9663;48.996;8.334;2023-02-28T07:26:58;4.72;;;1.60;;
19059;SDS011;9663;48.996;8.334;2023-02-28T07:29:24;4.57;;;1.98;;
19059;SDS011;9663;48.996;8.334;2023-02-28T07:31:50;4.15;;;1.70;;
19059;SDS011;9663;48.996;8.334;2023-02-28T07:34:18;4.10;;;1.80;;
19059;SDS011;9663;48.996;8.334;2023-02-28T07:36:44;4.85;;;1.80;;
19059;SDS011;9663;48.996;8.334;2023-02-28T07:39:10;5.22;;;2.00;;
19059;SDS011;9663;48.996;8.334;2023-02-28T07:41:36;4.93;;;1.90;;
19059;SDS011;9663;48.996;8.334;2023-02-28T07:44:08;5.15;;;2.08;;
19059;SDS011;9663;48.996;8.334;2023-02-28T07:46:36;4.22;;;1.80;;
19059;SDS011;9663;48.996;8.334;2023-02-28T07:49:03;5.13;;;2.30;;
19059;SDS011;9663;48.996;8.334;2023-02-28T07:51:29;4.65;;;1.92;;
19059;SDS011;9663;48.996;8.334;2023-02-28T07:53:56;4.22;;;1.95;;
19059;SDS011;9663;48.996;8.334;2023-02-28T07:56:22;4.00;;;1.70;;
19059;SDS011;9663;48.996;8.334;2023-02-28T07:58:48;4.05;;;1.92;;
19059;SDS011;9663;48.996;8.334;2023-02-28T08:01:13;4.25;;;1.70;;
19059;SDS011;9663;48.996;8.334;2023-02-28T08:03:39;4.43;;;1.90;;
19059;SDS011;9663;48.996;8.334;2023-02-28T08:06:07;4.80;;;1.70;;
19059;SDS011;9663;48.996;8.334;2023-02-28T08:08:41;5.15;;;2.20;;
19059;SDS011;9663;48.996;8.334;2023-02-28T08:11:07;3.95;;;1.52;;
19059;SDS011;9663;48.996;8.334;2023-02-28T08:13:32;3.88;;;1.88;;
19059;SDS011;9663;48.996;8.334;2023-02-28T08:15:58;5.28;;;2.20;;
19059;SDS011;9663;48.996;8.334;2023-02-28T08:18:27;4.43;;;2.00;;
19059;SDS011;9663;48.996;8.334;2023-02-28T08:20:53;6.15;;;2.25;;
19059;SDS011;9663;48.996;8.334;2023-02-28T08:23:18;5.15;;;2.03;;
19059;SDS011;9663;48.996;8.334;2023-02-28T08:25:44;4.72;;;2.03;;
19059;SDS011;9663;48.996;8.334;2023-02-28T08:28:17;5.30;;;2.28;;
19059;SDS011;9663;48.996;8.334;2023-02-28T08:30:43;5.60;;;2.33;;
19059;SDS011;9663;48.996;8.334;2023-02-28T08:33:08;4.50;;;1.98;;
19059;SDS011;9663;48.996;8.334;2023-02-28T08:35:35;4.68;;;2.20;;
19059;SDS011;9663;48.996;8.334;2023-02-28T08:38:02;6.20;;;2.25;;
19059;SDS011;9663;48.996;8.334;2023-02-28T08:40:28;4.60;;;2.30;;
19059;SDS011;9663;48.996;8.334;2023-02-28T08:42:53;5.97;;;2.47;;
19059;SDS011;9663;48.996;8.334;2023-02-28T08:45:19;5.47;;;2.50;;
19059;SDS011;9663;48.996;8.334;2023-02-28T08:47:44;5.82;;;2.42;;
19059;SDS011;9663;48.996;8.334;2023-02-28T08:50:10;4.60;;;2.33;;
19059;SDS011;9663;48.996;8.334;2023-02-28T08:52:37;5.85;;;2.60;;
19059;SDS011;9663;48.996;8.334;2023-02-28T08:55:03;4.70;;;2.22;;
19059;SDS011;9663;48.996;8.334;2023-02-28T08:57:29;5.90;;;2.35;;
19059;SDS011;9663;48.996;8.334;2023-02-28T08:59:55;5.95;;;2.60;;
19059;SDS011;9663;48.996;8.334;2023-02-28T09:02:20;5.45;;;2.58;;
19059;SDS011;9663;48.996;8.334;2023-02-28T09:04:46;5.28;;;2.30;;
19059;SDS011;9663;48.996;8.334;2023-02-28T09:07:11;5.22;;;2.25;;
19059;SDS011;9663;48.996;8.334;2023-02-28T09:09:37;4.60;;;2.13;;
19059;SDS011;9663;48.996;8.334;2023-02-28T09:12:18;4.95;;;2.47;;
19059;SDS011;9663;48.996;8.334;2023-02-28T09:14:58;5.75;;;2.20;;
19059;SDS011;9663;48.996;8.334;2023-02-28T09:17:24;4.65;;;2.30;;
19059;SDS011;9663;48.996;8.334;2023-02-28T09:19:49;6.93;;;2.50;;
19059;SDS011;9663;48.996;8.334;2023-02-28T09:22:15;5.05;;;2.17;;
19059;SDS011;9663;48.996;8.334;2023-02-28T09:24:41;4.70;;;2.28;;
19059;SDS011;9663;48.996;8.334;2023-02-28T09:27:07;4.55;;;2.30;;
19059;SDS011;9663;48.996;8.334;2023-02-28T09:29:33;4.88;;;2.40;;
19059;SDS011;9663;48.996;8.334;2023-02-28T09:31:59;4.20;;;1.98;;
19059;SDS011;9663;48.996;8.334;2023-02-28T09:34:25;4.55;;;2.20;;
19059;SDS011;9663;48.996;8.334;2023-02-28T09:36:52;6.20;;;2.40;;
19059;SDS011;9663;48.996;8.334;2023-02-28T09:39:20;4.45;;;1.95;;
19059;SDS011;9663;48.996;8.334;2023-02-28T09:41:52;5.20;;;2.60;;
19059;SDS011;9663;48.996;8.334;2023-02-28T09:44:27;5.22;;;2.10;;
19059;SDS011;9663;48.996;8.334;2023-02-28T09:47:05;5.32;;;2.58;;
19059;SDS011;9663;48.996;8.334;2023-02-28T09:49:41;4.80;;;2.30;;
19059;SDS011;9663;48.996;8.334;2023-02-28T09:52:13;5.03;;;2.78;;
19059;SDS011;9663;48.996;8.334;2023-02-28T09:54:46;5.43;;;2.38;;
19059;SDS011;9663;48.996;8.334;2023-02-28T10:05:19;4.25;;;2.05;;
19059;SDS011;9663;48.996;8.334;2023-02-28T10:10:37;5.03;;;2.60;;
19059;SDS011;9663;48.996;8.334;2023-02-28T10:13:19;5.93;;;2.67;;
19059;SDS011;9663;48.996;8.334;2023-02-28T10:16:01;5.53;;;2.38;;
19059;SDS011;9663;48.996;8.334;2023-02-28T10:18:55;4.70;;;2.40;;
19059;SDS011;9663;48.996;8.334;2023-02-28T10:21:42;4.50;;;2.42;;
19059;SDS011;9663;48.996;8.334;2023-02-28T10:24:35;5.05;;;2.30;;
19059;SDS011;9663;48.996;8.334;2023-02-28T10:29:44;5.13;;;2.35;;
19059;SDS011;9663;48.996;8.334;2023-02-28T10:32:14;6.10;;;2.90;;
19059;SDS011;9663;48.996;8.334;2023-02-28T10:34:57;6.10;;;2.40;;
19059;SDS011;9663;48.996;8.334;2023-02-28T10:37:27;4.82;;;2.35;;
19059;SDS011;9663;48.996;8.334;2023-02-28T10:39:53;5.72;;;2.65;;
19059;SDS011;9663;48.996;8.334;2023-02-28T10:44:55;5.72;;;2.35;;
19059;SDS011;9663;48.996;8.334;2023-02-28T10:47:41;4.85;;;2.25;;
19059;SDS011;9663;48.996;8.334;2023-02-28T10:53:16;5.55;;;2.55;;
19059;SDS011;9663;48.996;8.334;2023-02-28T10:58:47;5.20;;;2.60;;
19059;SDS011;9663;48.996;8.334;2023-02-28T11:03:54;5.63;;;2.55;;
19059;SDS011;9663;48.996;8.334;2023-02-28T11:06:23;6.03;;;2.85;;
19059;SDS011;9663;48.996;8.334;2023-02-28T11:08:58;5.60;;;3.00;;
19059;SDS011;9663;48.996;8.334;2023-02-28T11:11:30;5.80;;;3.08;;
19059;SDS011;9663;48.996;8.334;2023-02-28T11:14:24;8.93;;;2.90;;
19059;SDS011;9663;48.996;8.334;2023-02-28T11:16:54;4.50;;;2.10;;
19059;SDS011;9663;48.996;8.334;2023-02-28T11:19:38;5.78;;;2.72;;
19059;SDS011;9663;48.996;8.334;2023-02-28T11:22:11;5.28;;;2.50;;
19059;SDS011;9663;48.996;8.334;2023-02-28T11:24:53;5.13;;;2.50;;
19059;SDS011;9663;48.996;8.334;2023-02-28T11:29:56;6.03;;;3.05;;
19059;SDS011;9663;48.996;8.334;2023-02-28T11:32:24;5.38;;;2.70;;
19059;SDS011;9663;48.996;8.334;2023-02-28T11:35:00;4.95;;;2.45;;
19059;SDS011;9663;48.996;8.334;2023-02-28T11:37:28;5.60;;;2.95;;
19059;SDS011;9663;48.996;8.334;2023-02-28T11:39:56;5.70;;;2.67;;
19059;SDS011;9663;48.996;8.334;2023-02-28T11:45:27;4.82;;;2.65;;
19059;SDS011;9663;48.996;8.334;2023-02-28T11:48:17;5.55;;;2.70;;
19059;SDS011;9663;48.996;8.334;2023-02-28T11:54:23;5.25;;;2.60;;
19059;SDS011;9663;48.996;8.334;2023-02-28T11:57:16;5.53;;;2.60;;
19059;SDS011;9663;48.996;8.334;2023-02-28T12:00:19;5.25;;;2.80;;
19059;SDS011;9663;48.996;8.334;2023-02-28T12:20:09;5.55;;;2.70;;
19059;SDS011;9663;48.996;8.334;2023-02-28T12:25:51;4.75;;;2.53;;
19059;SDS011;9663;48.996;8.334;2023-02-28T12:28:43;6.40;;;3.22;;
19059;SDS011;9663;48.996;8.334;2023-02-28T12:31:33;4.82;;;2.67;;
19059;SDS011;9663;48.996;8.334;2023-02-28T12:34:14;5.55;;;2.70;;
19059;SDS011;9663;48.996;8.334;2023-02-28T12:36:46;5.22;;;2.40;;
19059;SDS011;9663;48.996;8.334;2023-02-28T12:39:19;5.32;;;2.60;;
19059;SDS011;9663;48.996;8.334;2023-02-28T12:44:30;4.88;;;2.50;;
19059;SDS011;9663;48.996;8.334;2023-02-28T12:47:03;4.90;;;2.38;;
19059;SDS011;9663;48.996;8.334;2023-02-28T12:49:48;5.75;;;3.50;;
19059;SDS011;9663;48.996;8.334;2023-02-28T12:52:21;5.57;;;3.20;;
19059;SDS011;9663;48.996;8.334;2023-02-28T12:55:04;5.75;;;2.72;;
19059;SDS011;9663;48.996;8.334;2023-02-28T13:10:08;5.68;;;2.53;;
19059;SDS011;9663;48.996;8.334;2023-02-28T13:12:35;5.65;;;3.10;;
19059;SDS011;9663;48.996;8.334;2023-02-28T13:15:27;4.97;;;2.78;;
19059;SDS011;9663;48.996;8.334;2023-02-28T13:17:58;5.93;;;3.30;;
19059;SDS011;9663;48.996;8.334;2023-02-28T13:20:25;6.05;;;3.78;;
19059;SDS011;9663;48.996;8.334;2023-02-28T13:26:12;5.82;;;2.83;;
19059;SDS011;9663;48.996;8.334;2023-02-28T13:34:37;4.90;;;2.90;;
19059;SDS011;9663;48.996;8.334;2023-02-28T13:39:47;5.13;;;2.75;;
19059;SDS011;9663;48.996;8.334;2023-02-28T13:42:22;5.90;;;2.70;;
19059;SDS011;9663;48.996;8.334;2023-02-28T13:45:24;5.90;;;3.08;;
19059;SDS011;9663;48.996;8.334;2023-02-28T13:47:53;5.55;;;2.97;;
19059;SDS011;9663;48.996;8.334;2023-02-28T13:59:00;5.10;;;2.72;;
19059;SDS011;9663;48.996;8.334;2023-02-28T14:01:49;4.53;;;2.53;;
19059;SDS011;9663;48.996;8.334;2023-02-28T14:10:28;5.00;;;2.75;;
19059;SDS011;9663;48.996;8.334;2023-02-28T14:16:23;5.35;;;2.53;;
19059;SDS011;9663;48.996;8.334;2023-02-28T14:22:33;6.80;;;3.28;;
19059;SDS011;9663;48.996;8.334;2023-02-28T14:28:14;6.65;;;2.35;;
19059;SDS011;9663;48.996;8.334;2023-02-28T14:36:43;4.35;;;2.45;;
19059;SDS011;9663;48.996;8.334;2023-02-28T14:39:14;6.45;;;3.00;;
19059;SDS011;9663;48.996;8.334;2023-02-28T14:41:44;5.32;;;2.97;;
19059;SDS011;9663;48.996;8.334;2023-02-28T14:46:53;5.30;;;2.83;;
19059;SDS011;9663;48.996;8.334;2023-02-28T14:49:26;5.00;;;2.90;;
19059;SDS011;9663;48.996;8.334;2023-02-28T14:54:52;4.72;;;2.70;;
19059;SDS011;9663;48.996;8.334;2023-02-28T14:57:26;5.13;;;2.70;;
19059;SDS011;9663;48.996;8.334;2023-02-28T15:00:03;7.15;;;4.30;;
19059;SDS011;9663;48.996;8.334;2023-02-28T15:02:45;6.90;;;3.95;;
19059;SDS011;9663;48.996;8.334;2023-02-28T15:07:42;5.13;;;3.22;;
19059;SDS011;9663;48.996;8.334;2023-02-28T15:10:19;6.30;;;3.92;;
19059;SDS011;9663;48.996;8.334;2023-02-28T15:12:57;5.93;;;3.88;;
19059;SDS011;9663;48.996;8.334;2023-02-28T15:18:26;5.28;;;2.75;;
19059;SDS011;9663;48.996;8.334;2023-02-28T15:21:12;6.57;;;3.03;;
19059;SDS011;9663;48.996;8.334;2023-02-28T15:26:25;6.28;;;3.58;;
19059;SDS011;9663;48.996;8.334;2023-02-28T15:29:01;5.32;;;3.00;;
19059;SDS011;9663;48.996;8.334;2023-02-28T15:31:34;5.32;;;2.85;;
19059;SDS011;9663;48.996;8.334;2023-02-28T15:34:06;5.53;;;3.00;;
19059;SDS011;9663;48.996;8.334;2023-02-28T15:37:01;5.55;;;2.80;;
19059;SDS011;9663;48.996;8.334;2023-02-28T15:39:53;5.53;;;2.83;;
19059;SDS011;9663;48.996;8.334;2023-02-28T15:42:21;5.57;;;3.13;;
19059;SDS011;9663;48.996;8.334;2023-02-28T15:44:53;6.90;;;4.40;;
19059;SDS011;9663;48.996;8.334;2023-02-28T15:47:20;7.00;;;4.15;;
19059;SDS011;9663;48.996;8.334;2023-02-28T15:50:02;5.95;;;3.22;;
19059;SDS011;9663;48.996;8.334;2023-02-28T15:52:42;4.80;;;2.70;;
19059;SDS011;9663;48.996;8.334;2023-02-28T15:55:11;7.47;;;4.17;;
19059;SDS011;9663;48.996;8.334;2023-02-28T15:57:53;6.93;;;3.63;;
19059;SDS011;9663;48.996;8.334;2023-02-28T16:00:25;6.05;;;3.30;;
19059;SDS011;9663;48.996;8.334;2023-02-28T16:02:54;5.28;;;2.90;;
19059;SDS011;9663;48.996;8.334;2023-02-28T16:07:53;4.80;;;2.70;;
19059;SDS011;9663;48.996;8.334;2023-02-28T16:10:22;5.30;;;3.05;;
19059;SDS011;9663;48.996;8.334;2023-02-28T16:12:55;4.88;;;2.83;;
19059;SDS011;9663;48.996;8.334;2023-02-28T16:17:54;5.25;;;2.95;;
19059;SDS011;9663;48.996;8.334;2023-02-28T16:20:22;5.90;;;3.10;;
19059;SDS011;9663;48.996;8.334;2023-02-28T16:22:55;5.72;;;3.20;;
19059;SDS011;9663;48.996;8.334;2023-02-28T16:25:23;5.78;;;3.08;;
19059;SDS011;9663;48.996;8.334;2023-02-28T16:28:00;6.05;;;3.20;;
19059;SDS011;9663;48.996;8.334;2023-02-28T16:30:28;5.47;;;3.00;;
19059;SDS011;9663;48.996;8.334;2023-02-28T16:32:57;6.45;;;3.22;;
19059;SDS011;9663;48.996;8.334;2023-02-28T16:35:24;4.80;;;2.72;;
19059;SDS011;9663;48.996;8.334;2023-02-28T16:37:50;5.13;;;2.75;;
19059;SDS011;9663;48.996;8.334;2023-02-28T16:40:18;5.40;;;2.97;;
19059;SDS011;9663;48.996;8.334;2023-02-28T16:42:48;5.47;;;2.80;;
19059;SDS011;9663;48.996;8.334;2023-02-28T16:45:22;5.60;;;2.97;;
19059;SDS011;9663;48.996;8.334;2023-02-28T16:47:51;4.82;;;2.63;;
19059;SDS011;9663;48.996;8.334;2023-02-28T16:50:19;5.38;;;2.92;;
19059;SDS011;9663;48.996;8.334;2023-02-28T16:52:48;5.40;;;2.65;;
19059;SDS011;9663;48.996;8.334;2023-02-28T16:55:17;5.60;;;2.95;;
19059;SDS011;9663;48.996;8.334;2023-02-28T16:57:44;5.85;;;3.03;;
19059;SDS011;9663;48.996;8.334;2023-02-28T17:00:16;5.20;;;3.00;;
19059;SDS011;9663;48.996;8.334;2023-02-28T17:02:42;6.07;;;3.42;;
19059;SDS011;9663;48.996;8.334;2023-02-28T17:05:10;5.50;;;2.85;;
19059;SDS011;9663;48.996;8.334;2023-02-28T17:07:38;5.05;;;2.78;;
19059;SDS011;9663;48.996;8.334;2023-02-28T17:10:10;5.30;;;2.97;;
19059;SDS011;9663;48.996;8.334;2023-02-28T17:12:47;5.65;;;2.95;;
19059;SDS011;9663;48.996;8.334;2023-02-28T17:15:13;5.82;;;3.13;;
19059;SDS011;9663;48.996;8.334;2023-02-28T17:17:42;4.97;;;2.58;;
19059;SDS011;9663;48.996;8.334;2023-02-28T17:20:15;5.43;;;2.65;;
19059;SDS011;9663;48.996;8.334;2023-02-28T17:22:48;5.32;;;2.78;;
19059;SDS011;9663;48.996;8.334;2023-02-28T17:25:18;6.22;;;2.80;;
19059;SDS011;9663;48.996;8.334;2023-02-28T17:27:44;5.70;;;3.20;;
19059;SDS011;9663;48.996;8.334;2023-02-28T17:32:45;7.88;;;3.42;;
19059;SDS011;9663;48.996;8.334;2023-02-28T17:35:11;5.70;;;2.85;;
19059;SDS011;9663;48.996;8.334;2023-02-28T17:37:37;6.22;;;3.25;;
19059;SDS011;9663;48.996;8.334;2023-02-28T17:40:03;7.10;;;2.75;;
19059;SDS011;9663;48.996;8.334;2023-02-28T17:42:30;6.07;;;3.00;;
19059;SDS011;9663;48.996;8.334;2023-02-28T17:44:56;6.78;;;3.10;;
19059;SDS011;9663;48.996;8.334;2023-02-28T17:47:22;6.75;;;3.28;;
19059;SDS011;9663;48.996;8.334;2023-02-28T17:49:47;6.97;;;2.63;;
19059;SDS011;9663;48.996;8.334;2023-02-28T17:52:13;7.00;;;2.83;;
19059;SDS011;9663;48.996;8.334;2023-02-28T17:54:39;5.32;;;2.58;;
19059;SDS011;9663;48.996;8.334;2023-02-28T17:57:04;5.95;;;3.10;;
19059;SDS011;9663;48.996;8.334;2023-02-28T17:59:30;6.05;;;2.83;;
19059;SDS011;9663;48.996;8.334;2023-02-28T18:02:02;5.53;;;2.88;;
19059;SDS011;9663;48.996;8.334;2023-02-28T18:04:28;5.72;;;2.97;;
19059;SDS011;9663;48.996;8.334;2023-02-28T18:06:54;6.57;;;3.25;;